sensor_id;sensor_type;location;lat;lon;timestamp;temperature;humidity
27266;DHT22;14766;51.380;13.762;2022-12-10T00:01:35;5.70;71.70
27266;DHT22;14766;51.380;13.762;2022-12-10T00:04:03;5.70;71.70
27266;DHT22;14766;51.380;13.762;2022-12-10T00:06:32;5.70;71.60
27266;DHT22;14766;51.380;13.762;2022-12-10T00:09:00;5.70;71.70
27266;DHT22;14766;51.380;13.762;2022-12-10T00:11:28;5.70;71.70
27266;DHT22;14766;51.380;13.762;2022-12-10T00:13:56;5.70;71.60
27266;DHT22;14766;51.380;13.762;2022-12-10T00:16:25;5.70;71.70
27266;DHT22;14766;51.380;13.762;2022-12-10T00:18:54;5.70;71.70
27266;DHT22;14766;51.380;13.762;2022-12-10T00:21:24;5.70;71.80
27266;DHT22;14766;51.380;13.762;2022-12-10T00:23:52;5.70;71.80
27266;DHT22;14766;51.380;13.762;2022-12-10T00:26:20;5.70;71.70
27266;DHT22;14766;51.380;13.762;2022-12-10T00:28:48;5.80;71.60
27266;DHT22;14766;51.380;13.762;2022-12-10T00:31:28;5.80;71.40
27266;DHT22;14766;51.380;13.762;2022-12-10T00:33:57;5.80;71.40
27266;DHT22;14766;51.380;13.762;2022-12-10T00:36:30;5.80;71.40
27266;DHT22;14766;51.380;13.762;2022-12-10T00:38:59;5.80;71.30
27266;DHT22;14766;51.380;13.762;2022-12-10T00:41:27;5.80;71.30
27266;DHT22;14766;51.380;13.762;2022-12-10T00:44:16;5.80;71.20
27266;DHT22;14766;51.380;13.762;2022-12-10T00:47:15;5.80;71.20
27266;DHT22;14766;51.380;13.762;2022-12-10T00:50:01;5.80;71.30
27266;DHT22;14766;51.380;13.762;2022-12-10T00:52:28;5.80;71.30
27266;DHT22;14766;51.380;13.762;2022-12-10T00:54:57;5.80;71.30
27266;DHT22;14766;51.380;13.762;2022-12-10T00:57:24;5.80;71.30
27266;DHT22;14766;51.380;13.762;2022-12-10T00:59:51;5.80;71.30
27266;DHT22;14766;51.380;13.762;2022-12-10T01:02:18;5.80;71.20
27266;DHT22;14766;51.380;13.762;2022-12-10T01:04:45;5.80;71.20
27266;DHT22;14766;51.380;13.762;2022-12-10T01:07:13;5.80;71.20
27266;DHT22;14766;51.380;13.762;2022-12-10T01:09:40;5.80;71.20
27266;DHT22;14766;51.380;13.762;2022-12-10T01:12:08;5.80;71.20
27266;DHT22;14766;51.380;13.762;2022-12-10T01:14:43;5.80;71.30
27266;DHT22;14766;51.380;13.762;2022-12-10T01:17:45;5.80;71.20
27266;DHT22;14766;51.380;13.762;2022-12-10T01:20:27;5.80;71.20
27266;DHT22;14766;51.380;13.762;2022-12-10T01:22:54;5.80;71.20
27266;DHT22;14766;51.380;13.762;2022-12-10T01:25:21;5.70;71.30
27266;DHT22;14766;51.380;13.762;2022-12-10T01:28:03;5.70;71.30
27266;DHT22;14766;51.380;13.762;2022-12-10T01:31:15;5.70;71.40
27266;DHT22;14766;51.380;13.762;2022-12-10T01:34:12;5.70;71.30
27266;DHT22;14766;51.380;13.762;2022-12-10T01:36:42;5.70;71.30
27266;DHT22;14766;51.380;13.762;2022-12-10T01:39:14;5.60;71.20
27266;DHT22;14766;51.380;13.762;2022-12-10T01:41:45;5.60;71.30
27266;DHT22;14766;51.380;13.762;2022-12-10T01:47:11;5.60;71.50
27266;DHT22;14766;51.380;13.762;2022-12-10T01:49:40;5.60;71.50
27266;DHT22;14766;51.380;13.762;2022-12-10T01:52:10;5.60;71.50
27266;DHT22;14766;51.380;13.762;2022-12-10T01:54:43;5.60;71.50
27266;DHT22;14766;51.380;13.762;2022-12-10T02:00:37;5.60;71.60
27266;DHT22;14766;51.380;13.762;2022-12-10T02:03:29;5.60;71.60
27266;DHT22;14766;51.380;13.762;2022-12-10T02:17:18;5.40;71.40
27266;DHT22;14766;51.380;13.762;2022-12-10T02:22:20;5.40;71.50
27266;DHT22;14766;51.380;13.762;2022-12-10T02:24:51;5.40;71.60
27266;DHT22;14766;51.380;13.762;2022-12-10T02:28:32;5.40;71.80
27266;DHT22;14766;51.380;13.762;2022-12-10T02:30:50;5.40;71.80
27266;DHT22;14766;51.380;13.762;2022-12-10T02:36:39;5.40;72.00
27266;DHT22;14766;51.380;13.762;2022-12-10T02:39:12;5.30;72.20
27266;DHT22;14766;51.380;13.762;2022-12-10T02:41:52;5.40;72.20
27266;DHT22;14766;51.380;13.762;2022-12-10T02:44:21;5.40;72.20
27266;DHT22;14766;51.380;13.762;2022-12-10T02:46:51;5.40;72.40
27266;DHT22;14766;51.380;13.762;2022-12-10T02:49:55;5.40;72.20
27266;DHT22;14766;51.380;13.762;2022-12-10T02:52:43;5.40;72.20
27266;DHT22;14766;51.380;13.762;2022-12-10T02:55:13;5.40;72.20
27266;DHT22;14766;51.380;13.762;2022-12-10T02:58:04;5.40;72.30
27266;DHT22;14766;51.380;13.762;2022-12-10T03:00:46;5.40;72.50
27266;DHT22;14766;51.380;13.762;2022-12-10T03:03:59;5.40;72.40
27266;DHT22;14766;51.380;13.762;2022-12-10T03:06:53;5.40;72.30
27266;DHT22;14766;51.380;13.762;2022-12-10T03:09:32;5.50;72.20
27266;DHT22;14766;51.380;13.762;2022-12-10T03:12:22;5.50;72.20
27266;DHT22;14766;51.380;13.762;2022-12-10T03:15:09;5.50;72.20
27266;DHT22;14766;51.380;13.762;2022-12-10T03:18:31;5.50;72.30
27266;DHT22;14766;51.380;13.762;2022-12-10T03:21:21;5.50;72.20
27266;DHT22;14766;51.380;13.762;2022-12-10T03:23:58;5.50;72.20
27266;DHT22;14766;51.380;13.762;2022-12-10T03:26:42;5.50;72.20
27266;DHT22;14766;51.380;13.762;2022-12-10T03:29:33;5.50;72.20
27266;DHT22;14766;51.380;13.762;2022-12-10T03:32:03;5.50;72.20
27266;DHT22;14766;51.380;13.762;2022-12-10T03:35:00;5.50;72.10
27266;DHT22;14766;51.380;13.762;2022-12-10T03:37:37;5.50;72.00
27266;DHT22;14766;51.380;13.762;2022-12-10T03:40:22;5.50;71.90
27266;DHT22;14766;51.380;13.762;2022-12-10T03:42:56;5.50;71.80
27266;DHT22;14766;51.380;13.762;2022-12-10T03:45:41;5.50;71.70
27266;DHT22;14766;51.380;13.762;2022-12-10T03:48:14;5.40;71.80
27266;DHT22;14766;51.380;13.762;2022-12-10T03:51:00;5.50;72.00
27266;DHT22;14766;51.380;13.762;2022-12-10T03:53:31;5.40;72.00
27266;DHT22;14766;51.380;13.762;2022-12-10T03:56:01;5.40;72.00
27266;DHT22;14766;51.380;13.762;2022-12-10T03:58:29;5.50;71.90
27266;DHT22;14766;51.380;13.762;2022-12-10T04:00:56;5.40;71.80
27266;DHT22;14766;51.380;13.762;2022-12-10T04:03:24;5.50;71.90
27266;DHT22;14766;51.380;13.762;2022-12-10T04:05:53;5.40;71.80
27266;DHT22;14766;51.380;13.762;2022-12-10T04:08:55;5.40;71.70
27266;DHT22;14766;51.380;13.762;2022-12-10T04:12:05;5.40;71.70
27266;DHT22;14766;51.380;13.762;2022-12-10T04:14:51;5.40;71.80
27266;DHT22;14766;51.380;13.762;2022-12-10T04:17:40;5.40;71.70
27266;DHT22;14766;51.380;13.762;2022-12-10T04:20:49;5.40;71.80
27266;DHT22;14766;51.380;13.762;2022-12-10T04:23:59;5.40;72.00
27266;DHT22;14766;51.380;13.762;2022-12-10T04:26:52;5.40;72.00
27266;DHT22;14766;51.380;13.762;2022-12-10T04:29:30;5.30;71.90
27266;DHT22;14766;51.380;13.762;2022-12-10T04:31:57;5.30;71.90
27266;DHT22;14766;51.380;13.762;2022-12-10T04:34:32;5.30;71.90
27266;DHT22;14766;51.380;13.762;2022-12-10T04:37:26;5.30;71.90
27266;DHT22;14766;51.380;13.762;2022-12-10T04:40:20;5.30;72.00
27266;DHT22;14766;51.380;13.762;2022-12-10T04:42:48;5.30;71.90
27266;DHT22;14766;51.380;13.762;2022-12-10T04:45:21;5.30;71.90
27266;DHT22;14766;51.380;13.762;2022-12-10T04:47:51;5.30;71.90
27266;DHT22;14766;51.380;13.762;2022-12-10T04:50:18;5.30;72.10
27266;DHT22;14766;51.380;13.762;2022-12-10T04:52:47;5.40;72.30
27266;DHT22;14766;51.380;13.762;2022-12-10T04:55:14;5.30;72.30
27266;DHT22;14766;51.380;13.762;2022-12-10T04:57:56;5.40;72.40
27266;DHT22;14766;51.380;13.762;2022-12-10T05:00:25;5.40;72.40
27266;DHT22;14766;51.380;13.762;2022-12-10T05:02:53;5.40;72.40
27266;DHT22;14766;51.380;13.762;2022-12-10T05:05:43;5.40;72.40
27266;DHT22;14766;51.380;13.762;2022-12-10T05:08:10;5.40;72.40
27266;DHT22;14766;51.380;13.762;2022-12-10T05:10:38;5.40;72.40
27266;DHT22;14766;51.380;13.762;2022-12-10T05:13:07;5.40;72.30
27266;DHT22;14766;51.380;13.762;2022-12-10T05:16:10;5.40;72.30
27266;DHT22;14766;51.380;13.762;2022-12-10T05:19:07;5.40;72.10
27266;DHT22;14766;51.380;13.762;2022-12-10T05:22:04;5.40;72.10
27266;DHT22;14766;51.380;13.762;2022-12-10T05:24:50;5.50;72.20
27266;DHT22;14766;51.380;13.762;2022-12-10T05:27:32;5.40;72.00
27266;DHT22;14766;51.380;13.762;2022-12-10T05:30:20;5.40;71.90
27266;DHT22;14766;51.380;13.762;2022-12-10T05:33:27;5.40;71.80
27266;DHT22;14766;51.380;13.762;2022-12-10T05:36:26;5.40;71.90
27266;DHT22;14766;51.380;13.762;2022-12-10T05:39:37;5.40;71.80
27266;DHT22;14766;51.380;13.762;2022-12-10T05:42:10;5.40;71.90
27266;DHT22;14766;51.380;13.762;2022-12-10T05:45:09;5.40;71.90
27266;DHT22;14766;51.380;13.762;2022-12-10T05:47:45;5.40;71.70
27266;DHT22;14766;51.380;13.762;2022-12-10T05:50:32;5.40;71.70
27266;DHT22;14766;51.380;13.762;2022-12-10T05:53:00;5.40;71.70
27266;DHT22;14766;51.380;13.762;2022-12-10T05:55:28;5.30;71.80
27266;DHT22;14766;51.380;13.762;2022-12-10T05:58:32;5.30;71.80
27266;DHT22;14766;51.380;13.762;2022-12-10T06:01:27;5.30;71.90
27266;DHT22;14766;51.380;13.762;2022-12-10T06:04:09;5.30;71.90
27266;DHT22;14766;51.380;13.762;2022-12-10T06:06:56;5.30;71.90
27266;DHT22;14766;51.380;13.762;2022-12-10T06:09:37;5.30;71.80
27266;DHT22;14766;51.380;13.762;2022-12-10T06:12:19;5.30;71.90
27266;DHT22;14766;51.380;13.762;2022-12-10T06:15:16;5.30;71.90
27266;DHT22;14766;51.380;13.762;2022-12-10T06:18:03;5.30;71.90
27266;DHT22;14766;51.380;13.762;2022-12-10T06:20:43;5.30;71.90
27266;DHT22;14766;51.380;13.762;2022-12-10T06:23:29;5.30;71.90
27266;DHT22;14766;51.380;13.762;2022-12-10T06:26:31;5.30;72.80
27266;DHT22;14766;51.380;13.762;2022-12-10T06:29:16;5.30;71.90
27266;DHT22;14766;51.380;13.762;2022-12-10T06:32:18;5.30;71.90
27266;DHT22;14766;51.380;13.762;2022-12-10T06:35:11;5.20;71.80
27266;DHT22;14766;51.380;13.762;2022-12-10T06:37:42;5.20;71.90
27266;DHT22;14766;51.380;13.762;2022-12-10T06:40:18;5.30;72.00
27266;DHT22;14766;51.380;13.762;2022-12-10T06:42:54;5.30;72.10
27266;DHT22;14766;51.380;13.762;2022-12-10T06:45:39;5.20;71.90
27266;DHT22;14766;51.380;13.762;2022-12-10T06:48:08;5.30;71.90
27266;DHT22;14766;51.380;13.762;2022-12-10T06:50:35;5.20;71.90
27266;DHT22;14766;51.380;13.762;2022-12-10T06:53:03;5.30;71.90
27266;DHT22;14766;51.380;13.762;2022-12-10T06:55:30;5.30;71.90
27266;DHT22;14766;51.380;13.762;2022-12-10T06:57:57;5.30;71.90
27266;DHT22;14766;51.380;13.762;2022-12-10T07:00:24;5.30;71.90
27266;DHT22;14766;51.380;13.762;2022-12-10T07:02:51;5.30;71.90
27266;DHT22;14766;51.380;13.762;2022-12-10T07:05:19;5.30;71.90
27266;DHT22;14766;51.380;13.762;2022-12-10T07:07:47;5.30;71.90
27266;DHT22;14766;51.380;13.762;2022-12-10T07:10:14;5.30;71.90
27266;DHT22;14766;51.380;13.762;2022-12-10T07:12:41;5.30;72.80
27266;DHT22;14766;51.380;13.762;2022-12-10T07:15:14;5.30;71.80
27266;DHT22;14766;51.380;13.762;2022-12-10T07:17:44;5.30;71.90
27266;DHT22;14766;51.380;13.762;2022-12-10T07:20:15;5.30;71.90
27266;DHT22;14766;51.380;13.762;2022-12-10T07:22:44;5.30;71.90
27266;DHT22;14766;51.380;13.762;2022-12-10T07:25:11;5.30;71.90
27266;DHT22;14766;51.380;13.762;2022-12-10T07:27:39;5.30;71.90
27266;DHT22;14766;51.380;13.762;2022-12-10T07:30:06;5.30;71.90
27266;DHT22;14766;51.380;13.762;2022-12-10T07:32:34;5.30;71.90
27266;DHT22;14766;51.380;13.762;2022-12-10T07:35:01;5.30;71.90
27266;DHT22;14766;51.380;13.762;2022-12-10T07:37:28;5.30;71.90
27266;DHT22;14766;51.380;13.762;2022-12-10T07:39:55;5.30;72.00
27266;DHT22;14766;51.380;13.762;2022-12-10T07:42:22;5.30;71.70
27266;DHT22;14766;51.380;13.762;2022-12-10T07:44:50;5.30;71.70
27266;DHT22;14766;51.380;13.762;2022-12-10T07:47:17;5.30;71.60
27266;DHT22;14766;51.380;13.762;2022-12-10T07:49:44;5.30;71.40
27266;DHT22;14766;51.380;13.762;2022-12-10T07:52:11;5.20;71.40
27266;DHT22;14766;51.380;13.762;2022-12-10T07:54:38;5.20;71.40
27266;DHT22;14766;51.380;13.762;2022-12-10T07:57:05;5.20;71.50
27266;DHT22;14766;51.380;13.762;2022-12-10T07:59:32;5.20;71.70
27266;DHT22;14766;51.380;13.762;2022-12-10T08:02:00;5.20;71.80
27266;DHT22;14766;51.380;13.762;2022-12-10T08:04:34;5.20;71.70
27266;DHT22;14766;51.380;13.762;2022-12-10T08:07:01;5.20;71.70
27266;DHT22;14766;51.380;13.762;2022-12-10T08:09:28;5.20;71.80
27266;DHT22;14766;51.380;13.762;2022-12-10T08:11:56;5.20;71.90
27266;DHT22;14766;51.380;13.762;2022-12-10T08:14:23;5.30;72.00
27266;DHT22;14766;51.380;13.762;2022-12-10T08:16:50;5.30;72.00
27266;DHT22;14766;51.380;13.762;2022-12-10T08:19:17;5.30;72.00
27266;DHT22;14766;51.380;13.762;2022-12-10T08:21:50;5.30;72.10
27266;DHT22;14766;51.380;13.762;2022-12-10T08:24:17;5.30;72.00
27266;DHT22;14766;51.380;13.762;2022-12-10T08:26:44;5.20;72.00
27266;DHT22;14766;51.380;13.762;2022-12-10T08:29:11;5.30;72.00
27266;DHT22;14766;51.380;13.762;2022-12-10T08:31:38;5.20;71.90
27266;DHT22;14766;51.380;13.762;2022-12-10T08:34:12;5.20;71.80
27266;DHT22;14766;51.380;13.762;2022-12-10T08:36:40;5.20;71.60
27266;DHT22;14766;51.380;13.762;2022-12-10T08:39:07;5.30;71.70
27266;DHT22;14766;51.380;13.762;2022-12-10T08:41:38;5.20;71.70
27266;DHT22;14766;51.380;13.762;2022-12-10T08:44:05;5.20;71.60
27266;DHT22;14766;51.380;13.762;2022-12-10T08:46:33;5.20;71.70
27266;DHT22;14766;51.380;13.762;2022-12-10T08:49:00;5.30;71.80
27266;DHT22;14766;51.380;13.762;2022-12-10T08:51:27;5.30;71.80
27266;DHT22;14766;51.380;13.762;2022-12-10T08:53:55;5.30;71.90
27266;DHT22;14766;51.380;13.762;2022-12-10T08:56:22;5.30;71.90
27266;DHT22;14766;51.380;13.762;2022-12-10T08:58:51;5.30;71.80
27266;DHT22;14766;51.380;13.762;2022-12-10T09:01:18;5.30;71.90
27266;DHT22;14766;51.380;13.762;2022-12-10T09:03:46;5.30;71.90
27266;DHT22;14766;51.380;13.762;2022-12-10T09:06:19;5.30;72.20
27266;DHT22;14766;51.380;13.762;2022-12-10T09:08:47;5.30;71.80
27266;DHT22;14766;51.380;13.762;2022-12-10T09:11:18;5.30;71.80
27266;DHT22;14766;51.380;13.762;2022-12-10T09:13:45;5.30;71.80
27266;DHT22;14766;51.380;13.762;2022-12-10T09:16:14;5.40;71.80
27266;DHT22;14766;51.380;13.762;2022-12-10T09:18:41;5.40;71.80
27266;DHT22;14766;51.380;13.762;2022-12-10T09:21:11;5.40;71.80
27266;DHT22;14766;51.380;13.762;2022-12-10T09:23:39;5.40;71.70
27266;DHT22;14766;51.380;13.762;2022-12-10T09:26:09;5.40;71.70
27266;DHT22;14766;51.380;13.762;2022-12-10T09:28:37;5.40;71.70
27266;DHT22;14766;51.380;13.762;2022-12-10T09:31:05;5.40;71.70
27266;DHT22;14766;51.380;13.762;2022-12-10T09:33:40;5.40;71.70
27266;DHT22;14766;51.380;13.762;2022-12-10T09:36:10;5.40;71.70
27266;DHT22;14766;51.380;13.762;2022-12-10T09:38:39;5.40;71.60
27266;DHT22;14766;51.380;13.762;2022-12-10T09:46:52;5.50;71.50
27266;DHT22;14766;51.380;13.762;2022-12-10T09:52:13;5.50;71.40
27266;DHT22;14766;51.380;13.762;2022-12-10T09:55:03;5.50;71.40
27266;DHT22;14766;51.380;13.762;2022-12-10T09:57:49;5.50;71.30
27266;DHT22;14766;51.380;13.762;2022-12-10T10:02:58;5.50;71.40
27266;DHT22;14766;51.380;13.762;2022-12-10T10:05:38;5.50;71.30
27266;DHT22;14766;51.380;13.762;2022-12-10T10:08:13;5.50;71.30
27266;DHT22;14766;51.380;13.762;2022-12-10T10:10:44;5.50;71.20
27266;DHT22;14766;51.380;13.762;2022-12-10T10:13:16;5.50;71.20
27266;DHT22;14766;51.380;13.762;2022-12-10T10:15:47;5.50;71.30
27266;DHT22;14766;51.380;13.762;2022-12-10T10:18:37;5.50;71.30
27266;DHT22;14766;51.380;13.762;2022-12-10T10:21:23;5.50;71.10
27266;DHT22;14766;51.380;13.762;2022-12-10T10:23:51;5.40;71.10
27266;DHT22;14766;51.380;13.762;2022-12-10T10:26:18;5.40;71.20
27266;DHT22;14766;51.380;13.762;2022-12-10T10:28:46;5.40;71.20
27266;DHT22;14766;51.380;13.762;2022-12-10T10:31:24;5.50;71.30
27266;DHT22;14766;51.380;13.762;2022-12-10T10:34:04;5.50;71.30
27266;DHT22;14766;51.380;13.762;2022-12-10T10:36:34;5.40;71.30
27266;DHT22;14766;51.380;13.762;2022-12-10T10:39:29;5.40;71.20
27266;DHT22;14766;51.380;13.762;2022-12-10T10:41:58;5.50;71.20
27266;DHT22;14766;51.380;13.762;2022-12-10T10:44:34;5.50;71.20
27266;DHT22;14766;51.380;13.762;2022-12-10T10:47:02;5.50;71.20
27266;DHT22;14766;51.380;13.762;2022-12-10T10:49:32;5.50;71.20
27266;DHT22;14766;51.380;13.762;2022-12-10T10:52:05;5.50;71.20
27266;DHT22;14766;51.380;13.762;2022-12-10T10:57:17;5.50;70.90
27266;DHT22;14766;51.380;13.762;2022-12-10T10:59:47;5.50;71.00
27266;DHT22;14766;51.380;13.762;2022-12-10T11:02:17;5.50;71.10
27266;DHT22;14766;51.380;13.762;2022-12-10T11:04:52;5.50;71.20
27266;DHT22;14766;51.380;13.762;2022-12-10T11:07:35;5.50;71.30
27266;DHT22;14766;51.380;13.762;2022-12-10T11:10:16;5.50;71.30
27266;DHT22;14766;51.380;13.762;2022-12-10T11:12:53;5.50;71.20
27266;DHT22;14766;51.380;13.762;2022-12-10T11:15:39;5.50;71.20
27266;DHT22;14766;51.380;13.762;2022-12-10T11:18:23;5.50;71.20
27266;DHT22;14766;51.380;13.762;2022-12-10T11:23:44;5.50;71.10
27266;DHT22;14766;51.380;13.762;2022-12-10T11:26:30;5.50;71.00
27266;DHT22;14766;51.380;13.762;2022-12-10T11:29:25;5.50;70.90
27266;DHT22;14766;51.380;13.762;2022-12-10T11:35:18;5.50;70.90
27266;DHT22;14766;51.380;13.762;2022-12-10T11:46:25;5.50;71.30
27266;DHT22;14766;51.380;13.762;2022-12-10T11:49:09;5.50;71.20
27266;DHT22;14766;51.380;13.762;2022-12-10T12:00:23;5.40;71.20
27266;DHT22;14766;51.380;13.762;2022-12-10T12:06:41;5.40;71.20
27266;DHT22;14766;51.380;13.762;2022-12-10T12:14:59;5.40;71.20
27266;DHT22;14766;51.380;13.762;2022-12-10T12:17:34;5.40;71.20
27266;DHT22;14766;51.380;13.762;2022-12-10T12:20:23;5.40;71.20
27266;DHT22;14766;51.380;13.762;2022-12-10T12:23:33;5.40;71.20
27266;DHT22;14766;51.380;13.762;2022-12-10T12:26:02;5.40;71.30
27266;DHT22;14766;51.380;13.762;2022-12-10T12:28:43;5.40;71.30
27266;DHT22;14766;51.380;13.762;2022-12-10T12:31:34;5.30;71.30
27266;DHT22;14766;51.380;13.762;2022-12-10T12:37:18;5.40;71.40
27266;DHT22;14766;51.380;13.762;2022-12-10T12:42:49;5.30;71.40
27266;DHT22;14766;51.380;13.762;2022-12-10T12:45:36;5.30;71.40
27266;DHT22;14766;51.380;13.762;2022-12-10T12:48:25;5.30;71.40
27266;DHT22;14766;51.380;13.762;2022-12-10T12:50:58;5.30;71.50
27266;DHT22;14766;51.380;13.762;2022-12-10T12:53:26;5.30;71.60
27266;DHT22;14766;51.380;13.762;2022-12-10T12:56:09;5.30;71.60
27266;DHT22;14766;51.380;13.762;2022-12-10T13:01:28;5.30;71.50
27266;DHT22;14766;51.380;13.762;2022-12-10T13:03:58;5.30;71.40
27266;DHT22;14766;51.380;13.762;2022-12-10T13:06:32;5.30;71.50
27266;DHT22;14766;51.380;13.762;2022-12-10T13:11:44;5.30;71.60
27266;DHT22;14766;51.380;13.762;2022-12-10T13:14:36;5.30;71.60
27266;DHT22;14766;51.380;13.762;2022-12-10T13:17:37;5.30;71.60
27266;DHT22;14766;51.380;13.762;2022-12-10T13:23:03;5.40;71.80
27266;DHT22;14766;51.380;13.762;2022-12-10T13:36:34;5.30;71.70
27266;DHT22;14766;51.380;13.762;2022-12-10T13:41:38;5.40;71.70
27266;DHT22;14766;51.380;13.762;2022-12-10T13:44:45;5.30;71.60
27266;DHT22;14766;51.380;13.762;2022-12-10T13:50:02;5.30;71.40
27266;DHT22;14766;51.380;13.762;2022-12-10T13:52:42;5.30;71.40
27266;DHT22;14766;51.380;13.762;2022-12-10T14:01:07;5.30;71.50
27266;DHT22;14766;51.380;13.762;2022-12-10T14:03:46;5.30;71.50
27266;DHT22;14766;51.380;13.762;2022-12-10T14:06:21;5.30;71.60
27266;DHT22;14766;51.380;13.762;2022-12-10T14:11:34;5.20;71.70
27266;DHT22;14766;51.380;13.762;2022-12-10T14:14:09;5.20;71.60
27266;DHT22;14766;51.380;13.762;2022-12-10T14:16:40;5.20;71.70
27266;DHT22;14766;51.380;13.762;2022-12-10T14:19:13;5.20;71.70
27266;DHT22;14766;51.380;13.762;2022-12-10T14:21:43;5.20;71.70
27266;DHT22;14766;51.380;13.762;2022-12-10T14:24:35;5.20;71.70
27266;DHT22;14766;51.380;13.762;2022-12-10T14:27:24;5.20;71.80
27266;DHT22;14766;51.380;13.762;2022-12-10T14:30:14;5.20;71.90
27266;DHT22;14766;51.380;13.762;2022-12-10T14:32:42;5.20;72.70
27266;DHT22;14766;51.380;13.762;2022-12-10T14:35:29;5.20;71.70
27266;DHT22;14766;51.380;13.762;2022-12-10T14:37:58;5.10;71.70
27266;DHT22;14766;51.380;13.762;2022-12-10T14:40:32;5.10;71.70
27266;DHT22;14766;51.380;13.762;2022-12-10T14:43:07;5.10;71.70
27266;DHT22;14766;51.380;13.762;2022-12-10T14:45:53;5.10;71.80
27266;DHT22;14766;51.380;13.762;2022-12-10T14:48:23;5.20;71.90
27266;DHT22;14766;51.380;13.762;2022-12-10T14:50:51;5.10;71.80
27266;DHT22;14766;51.380;13.762;2022-12-10T14:53:26;5.10;71.90
27266;DHT22;14766;51.380;13.762;2022-12-10T14:56:02;5.10;71.80
27266;DHT22;14766;51.380;13.762;2022-12-10T14:58:37;5.10;71.80
27266;DHT22;14766;51.380;13.762;2022-12-10T15:03:51;5.10;71.80
27266;DHT22;14766;51.380;13.762;2022-12-10T15:06:19;5.10;71.80
27266;DHT22;14766;51.380;13.762;2022-12-10T15:08:47;5.10;71.80
27266;DHT22;14766;51.380;13.762;2022-12-10T15:11:17;5.10;71.80
27266;DHT22;14766;51.380;13.762;2022-12-10T15:13:47;5.00;71.90
27266;DHT22;14766;51.380;13.762;2022-12-10T15:16:19;5.00;71.90
27266;DHT22;14766;51.380;13.762;2022-12-10T15:18:55;5.00;71.80
27266;DHT22;14766;51.380;13.762;2022-12-10T15:21:41;5.00;71.90
27266;DHT22;14766;51.380;13.762;2022-12-10T15:24:20;5.00;72.00
27266;DHT22;14766;51.380;13.762;2022-12-10T15:26:50;5.00;72.10
27266;DHT22;14766;51.380;13.762;2022-12-10T15:32:09;5.00;72.20
27266;DHT22;14766;51.380;13.762;2022-12-10T15:34:55;5.00;72.20
27266;DHT22;14766;51.380;13.762;2022-12-10T15:37:41;5.00;72.20
27266;DHT22;14766;51.380;13.762;2022-12-10T15:40:28;5.00;72.20
27266;DHT22;14766;51.380;13.762;2022-12-10T15:43:30;5.00;72.20
27266;DHT22;14766;51.380;13.762;2022-12-10T15:45:58;5.00;72.30
27266;DHT22;14766;51.380;13.762;2022-12-10T15:48:29;5.00;72.30
27266;DHT22;14766;51.380;13.762;2022-12-10T15:50:57;5.00;73.10
27266;DHT22;14766;51.380;13.762;2022-12-10T15:53:27;5.00;72.10
27266;DHT22;14766;51.380;13.762;2022-12-10T15:56:02;5.00;72.00
27266;DHT22;14766;51.380;13.762;2022-12-10T15:58:29;5.00;72.10
27266;DHT22;14766;51.380;13.762;2022-12-10T16:00:56;5.00;72.10
27266;DHT22;14766;51.380;13.762;2022-12-10T16:03:27;5.00;72.10
27266;DHT22;14766;51.380;13.762;2022-12-10T16:05:55;5.00;72.20
27266;DHT22;14766;51.380;13.762;2022-12-10T16:08:24;5.00;72.30
27266;DHT22;14766;51.380;13.762;2022-12-10T16:11:01;5.00;72.30
27266;DHT22;14766;51.380;13.762;2022-12-10T16:13:33;5.00;72.20
27266;DHT22;14766;51.380;13.762;2022-12-10T16:16:05;5.00;72.20
27266;DHT22;14766;51.380;13.762;2022-12-10T16:18:33;5.00;72.10
27266;DHT22;14766;51.380;13.762;2022-12-10T16:21:04;5.00;72.10
27266;DHT22;14766;51.380;13.762;2022-12-10T16:23:32;5.00;72.00
27266;DHT22;14766;51.380;13.762;2022-12-10T16:25:59;5.00;71.90
27266;DHT22;14766;51.380;13.762;2022-12-10T16:28:27;5.00;72.10
27266;DHT22;14766;51.380;13.762;2022-12-10T16:30:56;4.90;72.00
27266;DHT22;14766;51.380;13.762;2022-12-10T16:33:27;5.00;72.10
27266;DHT22;14766;51.380;13.762;2022-12-10T16:35:57;4.90;72.00
27266;DHT22;14766;51.380;13.762;2022-12-10T16:38:25;4.90;72.10
27266;DHT22;14766;51.380;13.762;2022-12-10T16:40:54;5.00;72.20
27266;DHT22;14766;51.380;13.762;2022-12-10T16:43:24;5.00;72.20
27266;DHT22;14766;51.380;13.762;2022-12-10T16:45:52;5.00;72.20
27266;DHT22;14766;51.380;13.762;2022-12-10T16:48:20;5.00;72.10
27266;DHT22;14766;51.380;13.762;2022-12-10T16:50:50;5.00;72.10
27266;DHT22;14766;51.380;13.762;2022-12-10T16:53:24;5.00;72.10
27266;DHT22;14766;51.380;13.762;2022-12-10T16:55:55;5.00;72.10
27266;DHT22;14766;51.380;13.762;2022-12-10T16:58:23;5.00;72.10
27266;DHT22;14766;51.380;13.762;2022-12-10T17:04:39;5.00;72.00
27266;DHT22;14766;51.380;13.762;2022-12-10T17:07:11;5.00;71.90
27266;DHT22;14766;51.380;13.762;2022-12-10T17:09:52;5.00;71.90
27266;DHT22;14766;51.380;13.762;2022-12-10T17:12:40;5.00;71.90
27266;DHT22;14766;51.380;13.762;2022-12-10T17:15:18;5.00;71.90
27266;DHT22;14766;51.380;13.762;2022-12-10T17:18:02;5.00;71.90
27266;DHT22;14766;51.380;13.762;2022-12-10T17:20:42;5.00;71.90
27266;DHT22;14766;51.380;13.762;2022-12-10T17:23:19;5.00;72.00
27266;DHT22;14766;51.380;13.762;2022-12-10T17:25:49;5.00;71.90
27266;DHT22;14766;51.380;13.762;2022-12-10T17:28:18;5.00;71.90
27266;DHT22;14766;51.380;13.762;2022-12-10T17:30:46;5.00;71.90
27266;DHT22;14766;51.380;13.762;2022-12-10T17:33:14;5.00;71.90
27266;DHT22;14766;51.380;13.762;2022-12-10T17:35:44;4.90;71.80
27266;DHT22;14766;51.380;13.762;2022-12-10T17:38:26;5.00;71.90
27266;DHT22;14766;51.380;13.762;2022-12-10T17:40:56;5.00;71.80
27266;DHT22;14766;51.380;13.762;2022-12-10T17:43:24;5.00;71.80
27266;DHT22;14766;51.380;13.762;2022-12-10T17:46:04;5.00;71.90
27266;DHT22;14766;51.380;13.762;2022-12-10T17:48:42;5.00;71.80
27266;DHT22;14766;51.380;13.762;2022-12-10T17:51:18;5.00;71.90
27266;DHT22;14766;51.380;13.762;2022-12-10T17:53:48;5.00;71.90
27266;DHT22;14766;51.380;13.762;2022-12-10T17:56:21;4.90;71.90
27266;DHT22;14766;51.380;13.762;2022-12-10T17:58:55;4.90;71.90
27266;DHT22;14766;51.380;13.762;2022-12-10T18:01:24;4.90;71.80
27266;DHT22;14766;51.380;13.762;2022-12-10T18:03:54;4.90;71.80
27266;DHT22;14766;51.380;13.762;2022-12-10T18:06:29;4.90;71.80
27266;DHT22;14766;51.380;13.762;2022-12-10T18:08:58;4.90;71.70
27266;DHT22;14766;51.380;13.762;2022-12-10T18:11:32;4.90;71.70
27266;DHT22;14766;51.380;13.762;2022-12-10T18:14:00;4.90;71.60
27266;DHT22;14766;51.380;13.762;2022-12-10T18:16:32;4.90;71.60
27266;DHT22;14766;51.380;13.762;2022-12-10T18:19:03;4.90;71.60
27266;DHT22;14766;51.380;13.762;2022-12-10T18:21:30;4.90;71.50
27266;DHT22;14766;51.380;13.762;2022-12-10T18:23:57;4.80;71.40